createdAt,value
2018-02-07T00:00:02.612Z,-1.2
2018-02-07T00:05:07.884Z,-1.2
2018-02-07T00:10:02.661Z,-1.2
2018-02-07T00:15:03.039Z,-1.2
2018-02-07T00:20:03.345Z,-1.2
2018-02-07T00:25:02.667Z,-1.2
2018-02-07T00:30:07.937Z,-1.3
2018-02-07T00:35:08.294Z,-1.3
2018-02-07T00:40:03.075Z,-1.3
2018-02-07T00:45:08.393Z,-1.3
2018-02-07T00:50:12.831Z,-1.4
2018-02-07T00:55:08.093Z,-1.4
2018-02-07T01:00:04.952Z,-1.3
2018-02-07T01:05:02.705Z,-1.4
2018-02-07T01:10:07.561Z,-1.4
2018-02-07T01:15:02.778Z,-1.4
2018-02-07T01:20:05.725Z,-1.4
2018-02-07T01:25:17.675Z,-1.5
2018-02-07T01:30:02.986Z,-1.4
2018-02-07T01:35:05.763Z,-1.5
2018-02-07T01:40:02.515Z,-1.5
2018-02-07T01:45:05.292Z,-1.5
2018-02-07T01:50:05.100Z,-1.6
2018-02-07T01:55:02.838Z,-1.6
2018-02-07T02:00:08.160Z,-1.6
2018-02-07T02:05:08.415Z,-1.6
2018-02-07T02:10:05.737Z,-1.6
2018-02-07T02:15:07.466Z,-1.7
2018-02-07T02:20:02.828Z,-1.7
2018-02-07T02:25:03.070Z,-1.7
2018-02-07T02:30:05.896Z,-1.7
2018-02-07T02:35:05.094Z,-1.7
2018-02-07T02:40:02.809Z,-1.7
2018-02-07T02:45:08.140Z,-1.6
2018-02-07T02:50:07.460Z,-1.6
2018-02-07T02:55:02.640Z,-1.6
2018-02-07T03:00:02.927Z,-1.5
2018-02-07T03:05:03.251Z,-1.5
2018-02-07T03:10:05.565Z,-1.5
2018-02-07T03:15:03.339Z,-1.5
2018-02-07T03:20:07.816Z,-1.5
2018-02-07T03:25:08.071Z,-1.5
2018-02-07T03:30:05.892Z,-1.6
2018-02-07T03:35:05.114Z,-1.6
2018-02-07T03:40:02.857Z,-1.6
2018-02-07T03:45:08.203Z,-1.6
2018-02-07T03:50:02.530Z,-1.6
2018-02-07T03:55:02.834Z,-1.6
2018-02-07T04:00:10.693Z,-1.6
2018-02-07T04:05:15.953Z,-1.6
2018-02-07T04:10:17.940Z,-1.6
2018-02-07T04:15:08.023Z,-1.5
2018-02-07T04:20:02.352Z,-1.5
2018-02-07T04:25:07.992Z,-1.5
2018-02-07T04:30:05.144Z,-1.5
2018-02-07T04:35:05.704Z,-1.5
2018-02-07T04:40:02.692Z,-1.5
2018-02-07T04:45:03.264Z,-1.5
2018-02-07T04:50:05.362Z,-1.5
2018-02-07T04:55:03.373Z,-1.5
2018-02-07T05:00:07.972Z,-1.4
2018-02-07T05:05:20.171Z,-1.4
2018-02-07T05:10:05.738Z,-1.4
2018-02-07T05:15:02.944Z,-1.4
2018-02-07T05:20:05.203Z,-1.4
2018-02-07T05:25:05.740Z,-1.4
2018-02-07T05:30:05.905Z,-1.4
2018-02-07T05:35:05.405Z,-1.3
2018-02-07T05:40:05.016Z,-1.3
2018-02-07T05:45:03.037Z,-1.3
2018-02-07T05:50:07.690Z,-1.4
2018-02-07T05:55:05.724Z,-1.4
2018-02-07T06:00:05.876Z,-1.3
2018-02-07T06:05:02.844Z,-1.4
2018-02-07T06:10:05.507Z,-1.3
2018-02-07T06:15:07.551Z,-1.3
2018-02-07T06:20:03.184Z,-1.3
2018-02-07T06:25:30.518Z,-1.3
2018-02-07T06:30:05.620Z,-1.3
2018-02-07T06:35:02.657Z,-1.3
2018-02-07T06:40:02.763Z,-1.3
2018-02-07T06:45:07.492Z,-1.3
2018-02-07T06:50:25.852Z,-1.3
2018-02-07T06:55:03.396Z,-1.3
2018-02-07T07:00:03.000Z,-1.2
2018-02-07T07:05:05.104Z,-1.2
2018-02-07T07:10:05.752Z,-1.1
2018-02-07T07:15:02.765Z,-1.1
2018-02-07T07:20:04.975Z,-1.1
2018-02-07T07:25:02.999Z,-1.1
2018-02-07T07:30:05.204Z,-1
2018-02-07T07:35:05.663Z,-1
2018-02-07T07:40:08.309Z,-0.9
2018-02-07T07:45:05.315Z,-0.9
2018-02-07T07:50:02.905Z,-0.9
2018-02-07T07:55:07.593Z,-0.7
2018-02-07T08:00:05.732Z,-0.7
2018-02-07T08:05:05.257Z,-0.6
2018-02-07T08:10:13.424Z,-0.5
2018-02-07T08:15:02.836Z,-0.5
2018-02-07T08:20:05.014Z,-0.4
2018-02-07T08:25:02.986Z,-0.4
2018-02-07T08:30:05.384Z,-0.3
2018-02-07T08:35:08.219Z,-0.2
2018-02-07T08:40:03.304Z,-0.2
2018-02-07T08:45:15.608Z,0
2018-02-07T08:50:03.229Z,0
2018-02-07T08:55:02.755Z,0.1
2018-02-07T09:00:04.983Z,0.3
2018-02-07T09:05:08.191Z,0.4
2018-02-07T09:10:03.226Z,0.4
2018-02-07T09:15:05.334Z,0.3
2018-02-07T09:20:08.049Z,0.2
2018-02-07T09:25:02.519Z,0.2
2018-02-07T09:30:05.627Z,0
2018-02-07T09:35:02.628Z,0
2018-02-07T09:40:02.763Z,0
2018-02-07T09:45:03.225Z,0.1
2018-02-07T09:50:02.767Z,0.2
2018-02-07T09:55:08.453Z,0.4
2018-02-07T10:00:08.104Z,0.5
2018-02-07T10:05:05.117Z,0.6
2018-02-07T10:10:02.648Z,0.6
2018-02-07T10:15:08.282Z,0.8
2018-02-07T10:20:05.756Z,0.8
2018-02-07T10:25:02.866Z,0.8
2018-02-07T10:30:05.534Z,1.1
2018-02-07T10:35:02.458Z,1.1
2018-02-07T10:40:05.402Z,1.3
2018-02-07T10:45:07.503Z,1.2
2018-02-07T10:55:02.738Z,1.3
2018-02-07T11:00:11.016Z,1.3
2018-02-07T11:05:02.966Z,1.3
2018-02-07T11:10:10.560Z,1.5
2018-02-07T11:15:10.106Z,1.7
2018-02-07T11:20:02.915Z,1.7
2018-02-07T11:25:05.888Z,1.9
2018-02-07T11:30:05.053Z,2
2018-02-07T11:35:03.058Z,2
2018-02-07T11:40:03.119Z,2.1
2018-02-07T11:45:10.261Z,2.2
2018-02-07T11:50:10.427Z,2.2
2018-02-07T11:55:02.415Z,2.2
2018-02-07T12:00:05.535Z,2.3
2018-02-07T12:05:07.662Z,2.4
2018-02-07T12:10:05.257Z,2.4
2018-02-07T12:15:08.456Z,2.6
2018-02-07T12:20:03.137Z,2.6
2018-02-07T12:25:07.775Z,2.9
2018-02-07T12:30:08.487Z,3
2018-02-07T12:35:13.041Z,3
2018-02-07T12:40:03.078Z,3
2018-02-07T12:45:02.688Z,3
2018-02-07T12:50:03.341Z,3
2018-02-07T12:55:02.837Z,2.9
2018-02-07T13:00:05.975Z,2.9
2018-02-07T13:05:05.531Z,3.3
2018-02-07T13:10:05.135Z,3.7
2018-02-07T13:15:08.291Z,3.9
2018-02-07T13:20:02.894Z,3.9
2018-02-07T13:25:02.511Z,3.8
2018-02-07T13:30:10.864Z,3.7
2018-02-07T13:35:02.822Z,3.7
2018-02-07T13:40:02.877Z,3.7
2018-02-07T13:45:05.036Z,3.7
2018-02-07T13:50:10.299Z,3.6
2018-02-07T13:55:08.295Z,3.5
2018-02-07T14:00:07.888Z,3.6
2018-02-07T14:05:02.418Z,3.6
2018-02-07T14:10:02.558Z,4.1
2018-02-07T14:15:05.595Z,4.6
2018-02-07T14:20:03.395Z,4.6
2018-02-07T14:25:03.358Z,14.5
2018-02-07T14:30:05.515Z,6.7
2018-02-07T14:35:07.555Z,5.6
2018-02-07T14:40:05.217Z,5.3
2018-02-07T14:45:03.344Z,5.3
2018-02-07T14:50:23.112Z,5
2018-02-07T14:55:02.479Z,4.9
2018-02-07T15:00:03.167Z,4.8
2018-02-07T15:05:07.762Z,4.7
2018-02-07T15:10:05.383Z,4.6
2018-02-07T15:15:02.444Z,4.5
2018-02-07T15:20:08.274Z,4.3
2018-02-07T15:25:02.776Z,4.2
2018-02-07T15:30:03.408Z,4
2018-02-07T15:35:05.553Z,3.3
2018-02-07T15:40:07.693Z,3
2018-02-07T15:45:03.339Z,3
2018-02-07T15:50:05.497Z,2.5
2018-02-07T15:55:05.003Z,2.3
2018-02-07T16:00:02.608Z,2.2
2018-02-07T16:05:03.206Z,2.1
2018-02-07T16:10:03.332Z,1.8
2018-02-07T16:15:07.881Z,1.4
2018-02-07T16:20:02.564Z,1.4
2018-02-07T16:25:05.633Z,1.1
2018-02-07T16:30:05.745Z,1
2018-02-07T16:35:05.358Z,0.9
2018-02-07T16:40:08.458Z,0.7
2018-02-07T16:45:03.236Z,0.7
2018-02-07T16:50:15.456Z,0.6
2018-02-07T16:55:02.419Z,0.6
2018-02-07T17:00:05.607Z,0.4
2018-02-07T17:05:02.654Z,0.4
2018-02-07T17:10:02.717Z,0.3
2018-02-07T17:15:03.306Z,0.2
2018-02-07T17:20:05.505Z,0.1
2018-02-07T17:25:02.516Z,0
2018-02-07T17:30:03.094Z,0
2018-02-07T17:35:05.235Z,-0.1
2018-02-07T17:40:05.788Z,-0.2
2018-02-07T17:45:05.331Z,-0.2
2018-02-07T17:50:05.531Z,-0.3
2018-02-07T17:55:07.608Z,-0.3
2018-02-07T18:00:05.775Z,-0.4
2018-02-07T18:05:05.323Z,-0.4
2018-02-07T18:10:05.926Z,-0.4
2018-02-07T18:15:05.502Z,-0.5
2018-02-07T18:20:03.238Z,-0.4
2018-02-07T18:25:02.776Z,-0.5
2018-02-07T18:30:05.903Z,-0.6
2018-02-07T18:35:06.590Z,-0.6
2018-02-07T18:40:02.759Z,-0.7
2018-02-07T18:45:03.213Z,-0.7
2018-02-07T18:50:07.909Z,-0.8
2018-02-07T18:55:03.364Z,-0.8
2018-02-07T19:00:03.013Z,-0.9
2018-02-07T19:05:07.629Z,-1
2018-02-07T19:10:10.267Z,-1.1
2018-02-07T19:15:03.288Z,-1.1
2018-02-07T19:20:03.122Z,-1.1
2018-02-07T19:25:07.780Z,-1.2
2018-02-07T19:30:04.980Z,-1.2
2018-02-07T19:35:18.152Z,-1.3
2018-02-07T19:40:20.938Z,-1.3
2018-02-07T19:45:03.103Z,-1.3
2018-02-07T19:50:05.282Z,-1.3
2018-02-07T19:55:07.479Z,-1.4
2018-02-07T20:00:05.588Z,-1.4
2018-02-07T20:05:02.612Z,-1.4
2018-02-07T20:10:03.007Z,-1.5
2018-02-07T20:15:05.031Z,-1.6
2018-02-07T20:20:02.712Z,-1.6
2018-02-07T20:25:08.458Z,-1.7
2018-02-07T20:30:03.027Z,-1.7
2018-02-07T20:35:07.869Z,-1.8
2018-02-07T20:40:05.453Z,-1.8
2018-02-07T20:45:07.783Z,-1.8
2018-02-07T20:50:03.353Z,-1.8
2018-02-07T20:55:10.516Z,-1.9
2018-02-07T21:00:05.625Z,-1.9
2018-02-07T21:05:05.523Z,-1.9
2018-02-07T21:10:06.229Z,-2
2018-02-07T21:15:08.420Z,-2
2018-02-07T21:20:05.641Z,-2
2018-02-07T21:25:05.226Z,-2.1
2018-02-07T21:30:02.832Z,-2.1
2018-02-07T21:35:03.342Z,-2.1
2018-02-07T21:40:11.022Z,-2.2
2018-02-07T21:45:05.446Z,-2.2
2018-02-07T21:50:04.974Z,-2.2
2018-02-07T21:55:02.932Z,-2.2
2018-02-07T22:00:15.296Z,-2.2
2018-02-07T22:05:05.593Z,-2.3
2018-02-07T22:10:30.434Z,-2.3
2018-02-07T22:15:05.610Z,-2.4
2018-02-07T22:20:03.253Z,-2.4
2018-02-07T22:25:07.913Z,-2.5
2018-02-07T22:30:02.476Z,-2.5
2018-02-07T22:35:03.023Z,-2.5
2018-02-07T22:40:08.130Z,-2.7
2018-02-07T22:45:05.205Z,-2.7
2018-02-07T22:50:02.741Z,-2.7
2018-02-07T22:55:05.782Z,-2.8
2018-02-07T23:00:05.930Z,-2.9
2018-02-07T23:05:07.999Z,-2.9
2018-02-07T23:10:03.104Z,-2.9
2018-02-07T23:15:02.686Z,-2.9
2018-02-07T23:20:03.423Z,-3
2018-02-07T23:25:02.904Z,-3
2018-02-07T23:30:04.993Z,-3.1
2018-02-07T23:35:05.647Z,-3.1
2018-02-07T23:40:02.769Z,-3.1
2018-02-07T23:45:05.848Z,-3.1
2018-02-07T23:50:03.375Z,-3.2
2018-02-07T23:55:08.022Z,-3.2
